createdAt,value
2022-09-12T00:00:10.774Z,91.77
2022-09-12T00:02:37.164Z,91.93
2022-09-12T00:05:04.369Z,91.74
2022-09-12T00:07:30.708Z,91.78
2022-09-12T00:09:57.179Z,92.00
2022-09-12T00:12:23.560Z,91.69
2022-09-12T00:14:49.932Z,91.49
2022-09-12T00:17:16.373Z,91.16
2022-09-12T00:19:42.771Z,91.59
2022-09-12T00:22:09.290Z,91.84
2022-09-12T00:24:35.622Z,92.33
2022-09-12T00:27:01.980Z,93.01
2022-09-12T00:29:28.388Z,93.14
2022-09-12T00:31:54.773Z,93.32
2022-09-12T00:34:21.172Z,93.68
2022-09-12T00:36:47.567Z,94.42
2022-09-12T00:39:17.968Z,94.94
2022-09-12T00:41:44.829Z,94.93
2022-09-12T00:44:37.092Z,94.90
2022-09-12T00:47:11.235Z,95.31
2022-09-12T00:49:49.771Z,95.71
2022-09-12T00:52:23.013Z,95.93
2022-09-12T00:55:14.206Z,95.92
2022-09-12T00:57:49.705Z,95.93
2022-09-12T01:00:19.438Z,96.10
2022-09-12T01:02:50.770Z,96.10
2022-09-12T01:05:18.271Z,96.10
2022-09-12T01:07:48.420Z,95.86
2022-09-12T01:10:17.273Z,95.97
2022-09-12T01:12:44.302Z,96.08
2022-09-12T01:15:11.058Z,95.91
2022-09-12T01:18:02.819Z,95.98
2022-09-12T01:20:50.943Z,96.25
2022-09-12T01:23:56.724Z,96.02
2022-09-12T01:27:05.917Z,96.19
2022-09-12T01:29:57.280Z,96.15
2022-09-12T01:32:39.146Z,95.95
2022-09-12T01:35:16.739Z,95.98
2022-09-12T01:37:51.492Z,95.57
2022-09-12T01:40:29.683Z,95.41
2022-09-12T01:43:10.207Z,95.24
2022-09-12T01:45:58.191Z,94.79
2022-09-12T01:48:35.970Z,94.88
2022-09-12T01:51:20.935Z,94.66
2022-09-12T01:54:01.907Z,94.62
2022-09-12T01:56:33.000Z,94.42
2022-09-12T01:59:06.064Z,94.26
2022-09-12T02:01:36.423Z,94.00
2022-09-12T02:04:17.430Z,93.78
2022-09-12T02:06:49.682Z,93.81
2022-09-12T02:09:19.861Z,93.88
2022-09-12T02:11:48.096Z,93.71
2022-09-12T02:14:28.249Z,93.61
2022-09-12T02:16:59.969Z,93.89
2022-09-12T02:19:34.454Z,93.92
2022-09-12T02:22:04.648Z,94.20
2022-09-12T02:24:39.306Z,94.51
2022-09-12T02:27:16.572Z,94.77
2022-09-12T02:29:44.879Z,94.73
2022-09-12T02:32:38.142Z,94.83
2022-09-12T02:35:33.737Z,94.71
2022-09-12T02:38:14.287Z,94.96
2022-09-12T02:40:41.261Z,95.44
2022-09-12T02:43:07.819Z,95.52
2022-09-12T02:45:35.793Z,95.59
2022-09-12T02:48:14.976Z,95.31
2022-09-12T02:50:42.046Z,95.17
2022-09-12T02:53:10.605Z,94.92
2022-09-12T02:55:39.921Z,94.65
2022-09-12T02:58:11.874Z,94.72
2022-09-12T03:00:48.486Z,94.59
2022-09-12T03:03:26.791Z,95.28
2022-09-12T03:06:00.262Z,95.79
2022-09-12T03:08:52.866Z,95.77
2022-09-12T03:11:30.896Z,95.86
2022-09-12T03:14:25.059Z,95.76
2022-09-12T03:17:13.321Z,96.24
2022-09-12T03:20:00.544Z,96.33
2022-09-12T03:22:53.796Z,96.35
2022-09-12T03:25:28.477Z,96.72
2022-09-12T03:28:07.511Z,96.75
2022-09-12T03:30:40.636Z,97.18
2022-09-12T03:33:11.460Z,97.40
2022-09-12T03:35:38.233Z,97.43
2022-09-12T03:38:05.132Z,97.35
2022-09-12T03:40:31.498Z,97.44
2022-09-12T03:42:57.880Z,97.19
2022-09-12T03:45:24.218Z,97.33
2022-09-12T03:47:50.699Z,97.07
2022-09-12T03:50:17.489Z,96.85
2022-09-12T03:52:43.870Z,96.65
2022-09-12T03:55:10.944Z,96.91
2022-09-12T03:57:37.334Z,97.06
2022-09-12T04:00:06.469Z,97.02
2022-09-12T04:02:32.928Z,96.65
2022-09-12T04:04:59.372Z,96.72
2022-09-12T04:07:25.893Z,96.72
2022-09-12T04:09:53.183Z,96.68
2022-09-12T04:12:20.413Z,96.80
2022-09-12T04:14:46.742Z,96.85
2022-09-12T04:17:14.213Z,97.04
2022-09-12T04:19:40.576Z,97.27
2022-09-12T04:22:06.985Z,97.49
2022-09-12T04:24:33.452Z,97.63
2022-09-12T04:26:59.795Z,97.61
2022-09-12T04:29:26.318Z,97.74
2022-09-12T04:31:52.880Z,97.81
2022-09-12T04:34:19.462Z,97.66
2022-09-12T04:36:45.808Z,97.65
2022-09-12T04:39:12.374Z,97.81
2022-09-12T04:41:40.467Z,97.87
2022-09-12T04:44:11.546Z,97.77
2022-09-12T04:46:40.321Z,97.85
2022-09-12T04:49:07.338Z,97.83
2022-09-12T04:51:35.936Z,98.22
2022-09-12T04:54:06.193Z,98.39
2022-09-12T04:56:34.330Z,98.43
2022-09-12T04:59:01.356Z,98.61
2022-09-12T05:01:29.750Z,98.80
2022-09-12T05:03:57.702Z,98.79
2022-09-12T05:06:27.168Z,98.85
2022-09-12T05:08:53.751Z,98.99
2022-09-12T05:11:26.592Z,98.84
2022-09-12T05:13:56.877Z,98.69
2022-09-12T05:16:26.579Z,98.72
2022-09-12T05:18:53.235Z,98.65
2022-09-12T05:21:21.671Z,98.74
2022-09-12T05:23:51.476Z,98.85
2022-09-12T05:26:20.448Z,98.71
2022-09-12T05:28:48.566Z,98.72
2022-09-12T05:31:17.978Z,98.85
2022-09-12T05:33:47.581Z,99.23
2022-09-12T05:36:17.731Z,98.71
2022-09-12T05:38:44.821Z,97.91
2022-09-12T05:41:26.067Z,97.70
2022-09-12T05:43:54.828Z,97.72
2022-09-12T05:46:25.664Z,97.70
2022-09-12T05:48:56.298Z,97.92
2022-09-12T05:51:28.405Z,98.14
2022-09-12T05:53:59.934Z,98.21
2022-09-12T05:56:29.240Z,98.43
2022-09-12T05:58:59.098Z,98.52
2022-09-12T06:01:27.105Z,98.65
2022-09-12T06:03:55.788Z,98.73
2022-09-12T06:06:24.472Z,98.65
2022-09-12T06:08:53.247Z,98.50
2022-09-12T06:11:23.061Z,98.65
2022-09-12T06:13:50.955Z,98.65
2022-09-12T06:16:19.568Z,98.75
2022-09-12T06:18:50.924Z,98.59
2022-09-12T06:21:17.753Z,98.44
2022-09-12T06:23:46.270Z,98.51
2022-09-12T06:26:13.005Z,98.54
2022-09-12T06:28:41.621Z,98.56
2022-09-12T06:31:11.671Z,98.30
2022-09-12T06:33:40.858Z,98.32
2022-09-12T06:36:12.935Z,97.96
2022-09-12T06:38:40.284Z,97.65
2022-09-12T06:41:08.957Z,98.51
2022-09-12T06:43:35.388Z,93.96
2022-09-12T06:46:02.274Z,82.13
2022-09-12T06:48:29.347Z,83.23
2022-09-12T06:51:07.590Z,84.46
2022-09-12T06:53:34.477Z,85.62
2022-09-12T06:56:18.261Z,85.32
2022-09-12T06:58:46.906Z,79.64
2022-09-12T07:01:15.787Z,77.82
2022-09-12T07:03:46.869Z,74.33
2022-09-12T07:06:14.860Z,70.80
2022-09-12T07:08:41.479Z,68.15
2022-09-12T07:11:23.867Z,65.71
2022-09-12T07:13:52.892Z,62.84
2022-09-12T07:16:20.262Z,61.72
2022-09-12T07:18:55.031Z,60.45
2022-09-12T07:21:21.735Z,61.30
2022-09-12T07:23:48.866Z,61.93
2022-09-12T07:26:16.594Z,64.49
2022-09-12T07:28:43.054Z,68.09
2022-09-12T07:31:12.652Z,65.82
2022-09-12T07:33:39.994Z,62.58
2022-09-12T07:36:10.679Z,60.98
2022-09-12T07:38:38.190Z,59.39
2022-09-12T07:41:15.480Z,60.12
2022-09-12T07:43:43.977Z,58.63
2022-09-12T07:46:10.736Z,57.84
2022-09-12T07:48:38.319Z,57.90
2022-09-12T07:51:10.007Z,55.88
2022-09-12T07:53:41.581Z,56.45
2022-09-12T07:56:10.375Z,56.60
2022-09-12T07:58:38.811Z,58.36
2022-09-12T08:01:09.033Z,62.27
2022-09-12T08:03:36.296Z,64.27
2022-09-12T08:06:06.822Z,65.34
2022-09-12T08:08:33.651Z,67.78
2022-09-12T08:11:01.471Z,68.60
2022-09-12T08:13:28.872Z,69.07
2022-09-12T08:16:00.101Z,68.23
2022-09-12T08:18:28.240Z,67.84
2022-09-12T08:21:02.510Z,68.51
2022-09-12T08:23:29.533Z,67.92
2022-09-12T08:26:06.185Z,69.08
2022-09-12T08:28:35.172Z,69.28
2022-09-12T08:31:06.691Z,70.60
2022-09-12T08:33:34.074Z,70.79
2022-09-12T08:36:22.632Z,69.26
2022-09-12T08:38:56.319Z,70.37
2022-09-12T08:41:46.773Z,68.49
2022-09-12T08:44:47.528Z,68.50
2022-09-12T08:47:40.097Z,69.07
2022-09-12T08:50:12.813Z,69.30
2022-09-12T08:52:47.900Z,68.16
2022-09-12T08:55:27.947Z,67.15
2022-09-12T08:57:54.539Z,66.77
2022-09-12T09:00:21.890Z,67.31
2022-09-12T09:03:19.919Z,67.22
2022-09-12T09:06:07.037Z,66.81
2022-09-12T09:08:50.931Z,67.13
2022-09-12T09:11:48.245Z,66.51
2022-09-12T09:14:50.705Z,65.48
2022-09-12T09:17:25.226Z,65.66
2022-09-12T09:20:02.667Z,65.81
2022-09-12T09:22:55.389Z,65.35
2022-09-12T09:26:00.394Z,65.60
2022-09-12T09:28:34.234Z,66.37
2022-09-12T09:31:02.008Z,62.48
2022-09-12T09:33:33.761Z,64.33
2022-09-12T09:36:25.848Z,63.46
2022-09-12T09:38:55.240Z,64.93
2022-09-12T09:41:24.503Z,63.12
2022-09-12T09:43:51.183Z,63.94
2022-09-12T09:46:18.154Z,65.53
2022-09-12T09:48:47.751Z,60.94
2022-09-12T09:51:16.960Z,62.92
2022-09-12T09:53:48.791Z,62.62
2022-09-12T09:56:34.720Z,63.15
2022-09-12T09:59:26.816Z,62.63
2022-09-12T10:01:56.736Z,62.70
2022-09-12T10:04:29.420Z,62.48
2022-09-12T10:07:01.619Z,62.75
2022-09-12T10:09:33.468Z,62.04
2022-09-12T10:12:02.147Z,61.24
2022-09-12T10:14:41.476Z,61.54
2022-09-12T10:17:48.619Z,63.56
2022-09-12T10:20:36.280Z,61.70
2022-09-12T10:23:37.315Z,62.68
2022-09-12T10:26:09.918Z,62.65
2022-09-12T10:28:40.113Z,61.52
2022-09-12T10:31:13.832Z,60.80
2022-09-12T10:33:46.388Z,62.04
2022-09-12T10:36:13.495Z,60.34
2022-09-12T10:38:49.535Z,61.42
2022-09-12T10:41:16.032Z,60.67
2022-09-12T10:43:42.511Z,60.48
2022-09-12T10:46:14.938Z,59.39
2022-09-12T10:48:42.294Z,61.05
2022-09-12T10:51:23.874Z,60.28
2022-09-12T10:53:53.457Z,57.56
2022-09-12T10:56:31.903Z,60.22
2022-09-12T10:59:34.284Z,58.02
2022-09-12T11:02:00.656Z,57.84
2022-09-12T11:04:58.275Z,58.51
2022-09-12T11:08:03.313Z,58.54
2022-09-12T11:10:46.568Z,57.65
2022-09-12T11:13:40.638Z,57.79
2022-09-12T11:16:13.505Z,57.69
2022-09-12T11:19:03.270Z,56.13
2022-09-12T11:21:50.726Z,56.79
2022-09-12T11:24:38.123Z,57.23
2022-09-12T11:27:22.900Z,55.49
2022-09-12T11:29:59.163Z,55.72
2022-09-12T11:32:47.580Z,54.15
2022-09-12T11:35:29.558Z,56.10
2022-09-12T11:38:37.518Z,54.30
2022-09-12T11:41:08.254Z,54.31
2022-09-12T11:43:40.894Z,54.00
2022-09-12T11:46:21.260Z,53.84
2022-09-12T11:49:01.014Z,51.26
2022-09-12T11:51:37.290Z,53.57
2022-09-12T11:54:14.238Z,53.80
2022-09-12T11:56:46.223Z,54.88
2022-09-12T11:59:25.736Z,53.67
2022-09-12T12:01:59.590Z,53.55
2022-09-12T12:04:36.962Z,53.52
2022-09-12T12:07:07.448Z,51.92
2022-09-12T12:09:34.538Z,51.70
2022-09-12T12:12:06.919Z,50.48
2022-09-12T12:14:43.196Z,51.26
2022-09-12T12:17:15.587Z,52.58
2022-09-12T12:19:42.615Z,52.34
2022-09-12T12:22:24.127Z,52.27
2022-09-12T12:25:03.560Z,51.36
2022-09-12T12:27:51.154Z,52.35
2022-09-12T12:30:29.772Z,51.81
2022-09-12T12:33:22.240Z,51.99
2022-09-12T12:35:57.694Z,51.03
2022-09-12T12:38:40.805Z,49.53
2022-09-12T12:41:16.348Z,51.27
2022-09-12T12:43:53.628Z,47.95
2022-09-12T12:46:22.390Z,49.97
2022-09-12T12:49:31.142Z,50.44
2022-09-12T12:52:01.551Z,48.65
2022-09-12T12:54:33.312Z,49.81
2022-09-12T12:57:15.039Z,48.69
2022-09-12T12:59:54.587Z,49.52
2022-09-12T13:02:26.266Z,49.53
2022-09-12T13:04:54.479Z,49.20
2022-09-12T13:07:29.989Z,49.08
2022-09-12T13:09:57.888Z,47.59
2022-09-12T13:12:29.978Z,48.16
2022-09-12T13:14:59.326Z,48.34
2022-09-12T13:17:34.358Z,48.40
2022-09-12T13:20:34.552Z,48.24
2022-09-12T13:23:01.268Z,47.07
2022-09-12T13:25:33.536Z,47.02
2022-09-12T13:28:09.520Z,47.18
2022-09-12T13:30:39.209Z,47.34
2022-09-12T13:33:31.109Z,48.45
2022-09-12T13:36:14.171Z,47.35
2022-09-12T13:38:53.136Z,49.15
2022-09-12T13:41:36.839Z,48.22
2022-09-12T13:44:09.689Z,46.41
2022-09-12T13:46:36.607Z,48.10
2022-09-12T13:49:19.107Z,46.86
2022-09-12T13:51:45.602Z,46.45
2022-09-12T13:54:21.405Z,46.11
2022-09-12T13:56:50.950Z,48.59
2022-09-12T13:59:17.521Z,47.41
2022-09-12T14:01:46.387Z,47.97
2022-09-12T14:04:40.738Z,47.75
2022-09-12T14:07:20.872Z,48.38
2022-09-12T14:09:55.881Z,45.99
2022-09-12T14:12:22.207Z,46.40
2022-09-12T14:14:50.883Z,46.99
2022-09-12T14:17:23.435Z,47.30
2022-09-12T14:19:52.760Z,46.40
2022-09-12T14:22:19.354Z,46.59
2022-09-12T14:24:51.588Z,46.74
2022-09-12T14:27:28.429Z,46.95
2022-09-12T14:30:09.047Z,47.01
2022-09-12T14:32:36.063Z,46.02
2022-09-12T14:35:13.328Z,47.07
2022-09-12T14:37:40.159Z,47.00
2022-09-12T14:40:19.595Z,46.55
2022-09-12T14:42:49.511Z,48.12
2022-09-12T14:45:29.456Z,47.48
2022-09-12T14:47:56.721Z,47.64
2022-09-12T14:50:26.500Z,47.39
2022-09-12T14:53:07.123Z,46.59
2022-09-12T14:55:42.296Z,44.94
2022-09-12T14:58:20.810Z,45.99
2022-09-12T15:01:01.798Z,47.17
2022-09-12T15:03:30.160Z,45.97
2022-09-12T15:05:57.809Z,45.51
2022-09-12T15:08:25.435Z,46.73
2022-09-12T15:10:52.112Z,47.07
2022-09-12T15:13:21.697Z,46.49
2022-09-12T15:15:59.150Z,45.73
2022-09-12T15:18:28.894Z,46.47
2022-09-12T15:21:00.845Z,45.90
2022-09-12T15:23:33.051Z,46.22
2022-09-12T15:26:00.167Z,47.30
2022-09-12T15:28:27.235Z,47.09
2022-09-12T15:30:55.440Z,46.74
2022-09-12T15:33:24.686Z,46.81
2022-09-12T15:35:52.428Z,47.34
2022-09-12T15:38:23.030Z,47.74
2022-09-12T15:40:53.932Z,48.56
2022-09-12T15:43:22.128Z,48.83
2022-09-12T15:45:51.479Z,48.27
2022-09-12T15:48:18.937Z,47.12
2022-09-12T15:50:45.492Z,46.93
2022-09-12T15:53:16.575Z,47.50
2022-09-12T15:55:43.569Z,46.45
2022-09-12T15:58:10.528Z,46.10
2022-09-12T16:00:36.900Z,46.32
2022-09-12T16:03:03.922Z,46.61
2022-09-12T16:05:30.355Z,46.49
2022-09-12T16:07:56.749Z,45.07
2022-09-12T16:10:27.729Z,45.23
2022-09-12T16:12:54.643Z,46.77
2022-09-12T16:15:23.868Z,46.04
2022-09-12T16:17:50.873Z,44.87
2022-09-12T16:20:18.758Z,46.54
2022-09-12T16:22:45.615Z,46.97
2022-09-12T16:25:12.054Z,45.57
2022-09-12T16:27:38.592Z,45.80
2022-09-12T16:30:07.130Z,46.66
2022-09-12T16:32:33.643Z,46.25
2022-09-12T16:35:00.018Z,46.81
2022-09-12T16:37:26.353Z,47.52
2022-09-12T16:39:53.653Z,48.39
2022-09-12T16:42:20.331Z,49.11
2022-09-12T16:44:48.372Z,47.91
2022-09-12T16:47:16.045Z,48.17
2022-09-12T16:49:42.661Z,49.74
2022-09-12T16:52:09.230Z,50.44
2022-09-12T16:54:36.076Z,50.27
2022-09-12T16:57:05.085Z,50.20
2022-09-12T16:59:31.470Z,51.18
2022-09-12T17:01:57.883Z,51.91
2022-09-12T17:04:24.571Z,52.05
2022-09-12T17:06:51.383Z,53.39
2022-09-12T17:09:18.626Z,53.18
2022-09-12T17:11:50.283Z,52.30
2022-09-12T17:14:16.913Z,54.12
2022-09-12T17:16:50.755Z,53.63
2022-09-12T17:19:28.012Z,55.34
2022-09-12T17:21:54.740Z,55.85
2022-09-12T17:24:21.710Z,54.63
2022-09-12T17:26:48.142Z,55.55
2022-09-12T17:29:15.529Z,57.38
2022-09-12T17:31:43.255Z,57.59
2022-09-12T17:34:10.006Z,57.78
2022-09-12T17:36:36.546Z,56.92
2022-09-12T17:39:04.130Z,57.27
2022-09-12T17:41:31.900Z,57.49
2022-09-12T17:43:59.754Z,57.08
2022-09-12T17:46:32.792Z,57.28
2022-09-12T17:49:00.894Z,59.22
2022-09-12T17:51:30.710Z,59.88
2022-09-12T17:54:03.459Z,60.92
2022-09-12T17:56:32.324Z,61.51
2022-09-12T17:59:00.024Z,62.07
2022-09-12T18:01:47.155Z,62.06
2022-09-12T18:04:14.692Z,63.33
2022-09-12T18:06:47.662Z,63.16
2022-09-12T18:09:19.274Z,63.86
2022-09-12T18:11:46.053Z,64.13
2022-09-12T18:14:14.343Z,65.17
2022-09-12T18:16:41.716Z,65.72
2022-09-12T18:19:08.185Z,66.23
2022-09-12T18:21:34.827Z,66.05
2022-09-12T18:24:01.508Z,65.98
2022-09-12T18:26:29.157Z,66.45
2022-09-12T18:28:56.188Z,65.87
2022-09-12T18:31:25.254Z,66.80
2022-09-12T18:33:51.998Z,66.66
2022-09-12T18:36:19.589Z,66.41
2022-09-12T18:38:46.066Z,66.28
2022-09-12T18:41:15.034Z,67.72
2022-09-12T18:43:41.710Z,67.98
2022-09-12T18:46:12.217Z,68.18
2022-09-12T18:48:39.007Z,68.26
2022-09-12T18:51:21.016Z,68.47
2022-09-12T18:53:52.923Z,69.12
2022-09-12T18:56:19.997Z,69.14
2022-09-12T18:58:50.830Z,69.86
2022-09-12T19:01:20.548Z,70.30
2022-09-12T19:03:47.458Z,70.42
2022-09-12T19:06:19.828Z,70.90
2022-09-12T19:08:46.428Z,72.04
2022-09-12T19:11:13.143Z,72.72
2022-09-12T19:13:42.049Z,72.46
2022-09-12T19:16:12.148Z,72.35
2022-09-12T19:18:40.027Z,72.40
2022-09-12T19:21:08.914Z,73.28
2022-09-12T19:23:36.223Z,73.47
2022-09-12T19:26:05.600Z,73.81
2022-09-12T19:28:32.683Z,73.62
2022-09-12T19:30:59.210Z,73.99
2022-09-12T19:33:25.902Z,74.17
2022-09-12T19:35:52.419Z,74.30
2022-09-12T19:38:19.078Z,74.88
2022-09-12T19:40:55.805Z,75.27
2022-09-12T19:43:22.216Z,75.40
2022-09-12T19:45:48.557Z,75.38
2022-09-12T19:48:15.052Z,75.57
2022-09-12T19:50:41.491Z,75.78
2022-09-12T19:53:08.199Z,75.94
2022-09-12T19:55:35.486Z,76.07
2022-09-12T19:58:02.256Z,76.09
2022-09-12T20:00:28.774Z,76.73
2022-09-12T20:02:55.302Z,76.73
2022-09-12T20:05:21.701Z,77.07
2022-09-12T20:07:48.339Z,77.04
2022-09-12T20:10:15.314Z,77.68
2022-09-12T20:12:42.228Z,77.75
2022-09-12T20:15:09.120Z,78.10
2022-09-12T20:17:36.228Z,78.44
2022-09-12T20:20:03.098Z,78.45
2022-09-12T20:22:29.464Z,78.28
2022-09-12T20:24:55.873Z,78.69
2022-09-12T20:27:22.248Z,78.68
2022-09-12T20:29:48.596Z,78.77
2022-09-12T20:32:14.974Z,79.32
2022-09-12T20:34:41.331Z,79.32
2022-09-12T20:37:07.890Z,79.88
2022-09-12T20:39:34.412Z,79.34
2022-09-12T20:42:00.748Z,79.23
2022-09-12T20:44:27.511Z,79.08
2022-09-12T20:46:54.060Z,79.49
2022-09-12T20:49:20.857Z,80.23
2022-09-12T20:51:48.469Z,80.24
2022-09-12T20:54:14.860Z,80.26
2022-09-12T20:56:41.228Z,79.90
2022-09-12T20:59:08.163Z,79.90
2022-09-12T21:01:34.796Z,80.05
2022-09-12T21:04:02.163Z,80.47
2022-09-12T21:06:28.675Z,80.44
2022-09-12T21:08:59.560Z,81.04
2022-09-12T21:11:27.371Z,81.11
2022-09-12T21:13:54.801Z,81.06
2022-09-12T21:16:22.837Z,81.17
2022-09-12T21:18:58.237Z,81.38
2022-09-12T21:21:25.856Z,81.80
2022-09-12T21:23:54.052Z,81.41
2022-09-12T21:26:20.888Z,81.28
2022-09-12T21:28:48.308Z,81.55
2022-09-12T21:31:14.726Z,81.29
2022-09-12T21:33:41.179Z,81.28
2022-09-12T21:36:08.633Z,81.44
2022-09-12T21:38:35.096Z,81.68
2022-09-12T21:41:10.276Z,81.23
2022-09-12T21:43:37.626Z,81.25
2022-09-12T21:46:05.732Z,81.52
2022-09-12T21:48:32.723Z,82.02
2022-09-12T21:50:59.986Z,82.11
2022-09-12T21:53:26.629Z,82.59
2022-09-12T21:55:53.343Z,82.57
2022-09-12T21:58:19.819Z,82.30
2022-09-12T22:00:46.450Z,82.46
2022-09-12T22:03:12.938Z,83.13
2022-09-12T22:05:43.099Z,82.78
2022-09-12T22:08:10.760Z,82.21
2022-09-12T22:10:38.482Z,82.14
2022-09-12T22:13:05.422Z,82.30
2022-09-12T22:15:40.898Z,82.25
2022-09-12T22:18:07.680Z,81.60
2022-09-12T22:20:34.020Z,81.60
2022-09-12T22:23:23.802Z,82.29
2022-09-12T22:25:55.212Z,82.36
2022-09-12T22:28:22.109Z,82.59
2022-09-12T22:30:48.658Z,82.74
2022-09-12T22:33:15.368Z,82.97
2022-09-12T22:35:42.539Z,82.98
2022-09-12T22:38:09.361Z,83.55
2022-09-12T22:40:35.756Z,83.28
2022-09-12T22:43:02.280Z,83.11
2022-09-12T22:45:28.835Z,82.58
2022-09-12T22:47:56.391Z,82.54
2022-09-12T22:50:25.574Z,82.16
2022-09-12T22:52:52.615Z,81.56
2022-09-12T22:55:19.186Z,81.88
2022-09-12T22:57:45.530Z,81.72
2022-09-12T23:00:12.637Z,81.42
2022-09-12T23:02:39.015Z,81.54
2022-09-12T23:05:06.079Z,81.29
2022-09-12T23:07:33.451Z,81.12
2022-09-12T23:09:59.916Z,81.17
2022-09-12T23:12:26.281Z,81.01
2022-09-12T23:14:52.718Z,80.84
2022-09-12T23:17:19.056Z,80.78
2022-09-12T23:19:45.463Z,81.10
2022-09-12T23:22:11.830Z,81.74
2022-09-12T23:24:38.375Z,81.72
2022-09-12T23:27:05.175Z,82.17
2022-09-12T23:29:34.299Z,82.03
2022-09-12T23:32:02.222Z,81.99
2022-09-12T23:34:29.154Z,82.14
2022-09-12T23:36:56.375Z,82.11
2022-09-12T23:39:23.354Z,82.38
2022-09-12T23:41:50.569Z,82.53
2022-09-12T23:44:16.952Z,82.35
2022-09-12T23:46:43.359Z,82.78
2022-09-12T23:49:09.770Z,82.81
2022-09-12T23:51:36.131Z,83.56
2022-09-12T23:54:02.704Z,83.78
2022-09-12T23:56:29.072Z,84.30
2022-09-12T23:58:55.469Z,84.07
